Time;durP1;ratioP1;P1;durP2;ratioP2;P2;SDS_P1;SDS_P2;PMS_P1;PMS_P2;Temp;Humidity;BMP_temperature;BMP_pressure;BME280_temperature;BME280_humidity;BME280_pressure;Samples;Min_cycle;Max_cycle;Signal;HPM_P1;HPM_P2
2024/02/26 00:02:01;;;;;;;14.80;7.43;;;6.40;99.90;;;;;;6274072;28;20049;-87
2024/02/26 00:05:03;;;;;;;20.65;7.95;;;6.40;99.90;;;;;;6236777;28;20050;-85
2024/02/26 00:08:05;;;;;;;20.42;7.50;;;6.40;99.90;;;;;;6231970;28;20064;-87
2024/02/26 00:11:06;;;;;;;20.20;7.40;;;6.40;99.90;;;;;;6252938;28;20052;-87
2024/02/26 00:14:08;;;;;;;17.17;7.43;;;6.40;99.90;;;;;;6258673;28;20054;-89
2024/02/26 00:17:10;;;;;;;17.38;7.35;;;6.40;99.90;;;;;;6253497;28;20057;-89
2024/02/26 00:20:13;;;;;;;17.00;6.80;;;6.40;99.90;;;;;;6258060;28;20059;-89
2024/02/26 00:23:15;;;;;;;19.80;7.43;;;6.40;99.90;;;;;;6225672;28;20064;-91
2024/02/26 00:26:17;;;;;;;16.92;6.32;;;6.40;99.90;;;;;;6216644;28;20057;-90
2024/02/26 00:29:18;;;;;;;15.38;6.57;;;6.30;99.90;;;;;;6225645;28;20045;-92
2024/02/26 00:32:20;;;;;;;14.85;6.07;;;6.30;99.90;;;;;;6261973;28;20056;-90
2024/02/26 00:35:22;;;;;;;17.30;6.93;;;6.30;99.90;;;;;;6252944;28;20061;-90
2024/02/26 00:38:23;;;;;;;16.08;7.22;;;6.30;99.90;;;;;;6260241;28;20072;-89
2024/02/26 00:41:25;;;;;;;16.63;6.65;;;6.30;99.90;;;;;;6236608;28;20061;-90
2024/02/26 00:44:27;;;;;;;13.77;7.00;;;6.30;99.90;;;;;;6233187;28;20136;-91
2024/02/26 00:47:29;;;;;;;16.95;7.13;;;6.30;99.90;;;;;;6271096;28;20096;-91
2024/02/26 00:50:31;;;;;;;19.05;7.55;;;6.30;99.90;;;;;;6243403;28;20048;-91
2024/02/26 00:53:32;;;;;;;14.65;7.38;;;6.30;99.90;;;;;;6264186;28;20050;-90
2024/02/26 00:56:34;;;;;;;15.68;7.78;;;6.30;99.90;;;;;;6233850;28;20053;-90
2024/02/26 00:59:36;;;;;;;18.70;6.85;;;6.30;99.90;;;;;;6244024;28;20048;-89
2024/02/26 01:02:38;;;;;;;17.63;8.07;;;6.30;99.90;;;;;;6234977;28;20049;-91
2024/02/26 01:05:40;;;;;;;19.75;7.60;;;6.40;99.90;;;;;;6239585;28;20060;-93
2024/02/26 01:08:42;;;;;;;19.83;8.30;;;6.30;99.90;;;;;;6262071;28;20423;-90
2024/02/26 01:11:44;;;;;;;16.20;8.23;;;6.40;99.90;;;;;;6245070;28;20057;-90
2024/02/26 01:14:46;;;;;;;20.33;8.95;;;6.40;99.90;;;;;;6262255;28;20100;-93
2024/02/26 01:17:47;;;;;;;17.63;8.52;;;6.40;99.90;;;;;;6233600;28;20456;-92
2024/02/26 01:20:49;;;;;;;18.70;8.80;;;6.40;99.90;;;;;;6275433;28;20094;-91
2024/02/26 01:23:51;;;;;;;18.13;8.55;;;6.40;99.90;;;;;;6234499;28;20403;-92
2024/02/26 01:26:53;;;;;;;21.65;9.02;;;6.40;99.90;;;;;;6275487;28;20049;-90
2024/02/26 01:29:55;;;;;;;18.40;8.43;;;6.40;99.90;;;;;;6236612;28;20049;-93
2024/02/26 01:32:57;;;;;;;20.63;8.93;;;6.40;99.90;;;;;;6259237;28;20064;-93
2024/02/26 01:36:00;;;;;;;19.38;8.98;;;6.40;99.90;;;;;;6255970;28;20056;-94
2024/02/26 01:39:03;;;;;;;21.00;8.75;;;6.40;99.90;;;;;;6273753;28;20049;-93
2024/02/26 01:42:05;;;;;;;17.35;8.95;;;6.40;99.90;;;;;;6258780;28;20049;-90
2024/02/26 01:45:07;;;;;;;21.08;8.88;;;6.50;99.90;;;;;;6228232;28;20125;-92
2024/02/26 01:48:10;;;;;;;17.38;8.38;;;6.50;99.90;;;;;;6255773;28;20053;-89
2024/02/26 01:51:12;;;;;;;17.77;8.43;;;6.50;99.90;;;;;;6232735;28;20057;-91
2024/02/26 01:54:14;;;;;;;22.38;8.75;;;6.50;99.90;;;;;;6240469;28;20053;-93
2024/02/26 01:57:16;;;;;;;21.52;8.65;;;6.50;99.90;;;;;;6274505;28;20420;-92
2024/02/26 02:00:17;;;;;;;16.52;7.53;;;6.50;99.90;;;;;;6232172;28;20073;-93
2024/02/26 02:03:19;;;;;;;16.80;7.75;;;6.50;99.90;;;;;;6231911;28;20065;-94
2024/02/26 02:06:21;;;;;;;15.23;7.95;;;6.70;99.90;;;;;;6235935;28;20068;-93
2024/02/26 02:09:24;;;;;;;16.98;7.95;;;6.50;99.90;;;;;;6277925;28;20057;-92
2024/02/26 02:12:25;;;;;;;16.48;7.80;;;6.60;99.90;;;;;;6237788;28;20053;-92
2024/02/26 02:15:27;;;;;;;24.50;8.73;;;6.50;99.90;;;;;;6234312;28;20073;-95
2024/02/26 02:18:29;;;;;;;19.27;7.32;;;6.50;99.90;;;;;;6255235;28;20049;-94
2024/02/26 02:21:31;;;;;;;15.48;7.63;;;6.50;99.90;;;;;;6244398;28;20057;-94
2024/02/26 02:24:33;;;;;;;20.65;7.82;;;6.60;99.90;;;;;;6261939;28;20057;-95
2024/02/26 02:27:35;;;;;;;16.30;7.25;;;6.60;99.90;;;;;;6235516;28;20124;-91
2024/02/26 02:30:36;;;;;;;16.15;7.80;;;6.60;99.90;;;;;;6254031;28;20048;-92
2024/02/26 02:33:38;;;;;;;17.00;7.35;;;6.60;99.90;;;;;;6211621;28;20050;-93
2024/02/26 02:36:40;;;;;;;16.30;7.57;;;6.60;99.90;;;;;;6248708;28;20537;-93
2024/02/26 02:39:43;;;;;;;19.00;7.13;;;6.60;99.90;;;;;;6262482;28;20053;-94
2024/02/26 02:42:44;;;;;;;20.92;7.75;;;6.60;99.90;;;;;;6240193;28;20053;-93
2024/02/26 02:45:46;;;;;;;16.90;7.47;;;6.60;99.90;;;;;;6233071;28;20060;-93
2024/02/26 02:48:48;;;;;;;16.30;7.13;;;6.60;99.90;;;;;;6260927;28;20072;-94
2024/02/26 02:51:50;;;;;;;15.32;6.32;;;6.60;99.90;;;;;;6237256;28;20084;-95
2024/02/26 02:54:52;;;;;;;14.07;6.15;;;6.60;99.90;;;;;;6248068;28;20057;-96
2024/02/26 02:57:54;;;;;;;21.55;6.60;;;6.60;99.90;;;;;;6261535;28;20049;-95
2024/02/26 03:01:28;;;;;;;14.93;5.75;;;6.50;99.90;;;;;;6265232;28;20454;-92
2024/02/26 03:04:30;;;;;;;13.48;6.07;;;6.50;99.90;;;;;;6225005;28;20046;-92
2024/02/26 03:07:31;;;;;;;12.90;5.70;;;6.60;99.90;;;;;;6260859;28;20385;-95
2024/02/26 03:10:36;;;;;;;15.70;6.03;;;6.50;99.90;;;;;;6239702;28;20443;-94
2024/02/26 03:13:38;;;;;;;14.02;5.63;;;6.60;99.90;;;;;;6251456;28;20081;-90
2024/02/26 03:16:41;;;;;;;13.30;5.40;;;6.60;99.90;;;;;;6263266;28;20556;-91
2024/02/26 03:19:43;;;;;;;13.30;5.75;;;6.50;99.90;;;;;;6238215;28;20061;-94
2024/02/26 03:22:45;;;;;;;15.43;5.40;;;6.50;99.90;;;;;;6259887;28;20060;-92
2024/02/26 03:25:47;;;;;;;11.02;5.03;;;6.50;99.90;;;;;;6238285;28;20057;-94
2024/02/26 03:28:49;;;;;;;11.50;5.28;;;6.60;99.90;;;;;;6246101;28;20057;-93
2024/02/26 03:31:51;;;;;;;13.38;5.80;;;6.50;99.90;;;;;;6245950;28;20500;-91
2024/02/26 03:34:55;;;;;;;17.90;5.45;;;6.60;99.90;;;;;;6259919;28;20053;-92
2024/02/26 03:37:57;;;;;;;14.60;5.13;;;6.60;99.90;;;;;;6230093;28;20049;-93
2024/02/26 03:40:59;;;;;;;13.20;5.47;;;6.60;99.90;;;;;;6252213;28;20056;-92
2024/02/26 03:47:28;;;;;;;14.48;5.70;;;6.50;99.90;;;;;;6205588;28;20107;-94
2024/02/26 03:50:30;;;;;;;15.93;5.13;;;6.50;99.90;;;;;;6253599;28;20050;-93
2024/02/26 03:53:32;;;;;;;13.15;5.05;;;6.50;99.90;;;;;;6244668;28;20038;-92
2024/02/26 03:56:33;;;;;;;11.05;4.80;;;6.50;99.90;;;;;;6258554;28;20061;-94
2024/02/26 03:59:35;;;;;;;16.90;5.65;;;6.50;99.90;;;;;;6265256;28;20053;-91
2024/02/26 04:02:37;;;;;;;11.57;5.32;;;6.50;99.90;;;;;;6228914;28;20058;-92
2024/02/26 04:05:39;;;;;;;11.77;4.88;;;6.40;99.90;;;;;;6266365;28;20063;-92
2024/02/26 04:08:41;;;;;;;13.35;4.60;;;6.40;99.90;;;;;;6243788;28;20052;-92
2024/02/26 04:11:45;;;;;;;12.15;4.97;;;6.40;99.90;;;;;;6227765;28;20056;-90
2024/02/26 04:14:47;;;;;;;10.73;4.82;;;6.40;99.90;;;;;;6197141;28;20050;-91
2024/02/26 04:17:49;;;;;;;14.73;5.00;;;6.40;99.90;;;;;;6250637;28;20068;-91
2024/02/26 04:20:51;;;;;;;11.73;4.93;;;6.40;99.90;;;;;;6228128;28;20092;-90
2024/02/26 04:23:55;;;;;;;15.35;5.90;;;6.40;99.90;;;;;;6243333;28;20049;-92
2024/02/26 04:26:56;;;;;;;14.93;4.88;;;6.40;99.90;;;;;;6247795;28;20061;-92
2024/02/26 04:29:58;;;;;;;11.18;4.63;;;6.30;99.90;;;;;;6209697;28;20184;-89
2024/02/26 04:33:00;;;;;;;11.68;4.25;;;6.30;99.90;;;;;;6246609;28;20406;-89
2024/02/26 04:36:02;;;;;;;11.10;4.07;;;6.40;99.90;;;;;;6241110;28;20088;-90
2024/02/26 04:39:04;;;;;;;12.52;4.25;;;6.30;99.90;;;;;;6250208;28;20045;-91
2024/02/26 04:42:06;;;;;;;10.90;3.75;;;6.30;99.90;;;;;;6257018;28;20064;-91
2024/02/26 04:45:08;;;;;;;11.55;4.10;;;6.30;99.90;;;;;;6223255;28;20287;-90
2024/02/26 04:48:10;;;;;;;9.07;3.75;;;6.30;99.90;;;;;;6272603;28;20487;-92
2024/02/26 04:51:12;;;;;;;9.32;4.05;;;6.30;99.90;;;;;;6249386;28;20401;-90
2024/02/26 04:54:13;;;;;;;8.85;3.33;;;6.30;99.90;;;;;;6256283;28;20139;-92
2024/02/26 04:57:18;;;;;;;8.15;3.60;;;6.30;99.90;;;;;;6256985;28;20408;-93
2024/02/26 05:00:20;;;;;;;7.57;3.33;;;6.30;99.90;;;;;;6246389;28;20081;-93
2024/02/26 05:03:22;;;;;;;8.45;3.33;;;6.30;99.90;;;;;;6259550;28;20122;-93
2024/02/26 05:06:24;;;;;;;9.50;3.53;;;6.30;99.90;;;;;;6238080;28;20142;-91
2024/02/26 05:09:25;;;;;;;11.63;3.63;;;6.20;99.90;;;;;;6281717;28;20098;-94
2024/02/26 05:12:27;;;;;;;8.98;3.65;;;6.20;99.90;;;;;;6237294;28;20505;-92
2024/02/26 05:15:29;;;;;;;7.60;3.63;;;6.20;99.90;;;;;;6258483;28;20698;-93
2024/02/26 05:18:31;;;;;;;10.50;3.65;;;6.30;99.90;;;;;;6254896;28;20489;-93
2024/02/26 05:21:33;;;;;;;12.23;3.83;;;6.20;99.90;;;;;;6277095;28;20060;-91
2024/02/26 05:24:35;;;;;;;8.23;3.13;;;6.30;99.90;;;;;;6254934;28;20045;-91
2024/02/26 05:27:37;;;;;;;8.70;3.28;;;6.20;99.90;;;;;;6264778;28;20057;-90
2024/02/26 05:30:40;;;;;;;12.10;3.95;;;6.20;99.90;;;;;;6246134;28;20049;-94
2024/02/26 05:33:43;;;;;;;11.15;3.40;;;5.90;99.90;;;;;;6239262;28;20172;-93
2024/02/26 05:36:45;;;;;;;8.07;3.28;;;6.20;99.90;;;;;;6246704;28;20049;-91
2024/02/26 05:39:46;;;;;;;10.13;3.05;;;6.20;99.90;;;;;;6235332;28;20057;-94
2024/02/26 05:42:49;;;;;;;8.13;2.92;;;6.20;99.90;;;;;;6279331;28;20048;-87
2024/02/26 05:45:50;;;;;;;8.43;3.13;;;6.20;99.90;;;;;;6220728;28;20060;-85
2024/02/26 05:48:52;;;;;;;9.10;3.05;;;6.20;99.90;;;;;;6230958;28;20057;-84
2024/02/26 05:51:54;;;;;;;10.15;3.03;;;6.20;99.90;;;;;;6281549;28;20048;-91
2024/02/26 05:54:56;;;;;;;9.20;3.00;;;6.20;99.90;;;;;;6257957;28;20590;-90
2024/02/26 05:57:57;;;;;;;12.57;3.33;;;6.20;99.90;;;;;;6280624;28;20049;-90
2024/02/26 06:01:00;;;;;;;10.65;3.05;;;6.20;99.90;;;;;;6252641;28;20056;-90
2024/02/26 06:04:01;;;;;;;9.93;3.30;;;6.20;99.90;;;;;;6285448;28;20045;-88
2024/02/26 06:07:03;;;;;;;7.35;2.35;;;6.20;99.90;;;;;;6256154;28;20079;-91
2024/02/26 06:10:05;;;;;;;8.57;2.40;;;6.10;99.90;;;;;;6280676;28;20508;-90
2024/02/26 06:13:07;;;;;;;8.90;2.72;;;6.20;99.90;;;;;;6263980;28;20052;-93
2024/02/26 06:16:09;;;;;;;8.48;2.30;;;6.10;99.90;;;;;;6280490;28;20053;-93
2024/02/26 06:19:11;;;;;;;5.95;2.40;;;;;;;;;;6257678;28;20803;-92
2024/02/26 06:22:14;;;;;;;7.00;2.20;;;6.10;99.90;;;;;;6285286;28;20091;-92
2024/02/26 06:25:16;;;;;;;7.28;2.20;;;6.40;99.40;;;;;;6242342;28;20049;-93
2024/02/26 06:28:18;;;;;;;7.68;2.30;;;6.10;98.60;;;;;;6265196;28;20092;-92
2024/02/26 06:31:21;;;;;;;7.40;2.10;;;6.00;98.90;;;;;;6258850;28;20049;-92
2024/02/26 06:34:23;;;;;;;9.35;2.33;;;6.00;97.30;;;;;;6258062;28;20053;-92
2024/02/26 06:37:25;;;;;;;8.18;2.00;;;6.00;96.20;;;;;;6274552;28;20068;-90
2024/02/26 06:40:27;;;;;;;8.27;2.03;;;6.00;95.50;;;;;;6253764;28;20065;-92
2024/02/26 06:43:28;;;;;;;5.68;1.90;;;6.00;96.50;;;;;;6255072;28;20065;-92
2024/02/26 06:46:30;;;;;;;9.90;2.03;;;6.00;96.90;;;;;;6265111;28;20049;-92
2024/02/26 06:49:32;;;;;;;5.82;1.83;;;6.00;95.20;;;;;;6258847;28;20076;-91
2024/02/26 06:52:34;;;;;;;9.05;2.00;;;6.00;93.30;;;;;;6276095;28;20052;-91
2024/02/26 06:55:40;;;;;;;6.28;1.80;;;5.90;94.30;;;;;;6257834;28;20072;-91
2024/02/26 06:58:41;;;;;;;7.32;1.70;;;6.00;93.00;;;;;;6235538;28;20044;-92
2024/02/26 07:01:43;;;;;;;7.35;2.00;;;5.90;93.00;;;;;;6266422;28;20061;-90
2024/02/26 07:04:45;;;;;;;8.55;2.00;;;5.90;93.00;;;;;;6238643;28;20050;-91
2024/02/26 07:07:46;;;;;;;6.22;1.90;;;5.90;91.80;;;;;;6270602;28;20065;-91
2024/02/26 07:10:48;;;;;;;5.97;1.40;;;5.90;91.90;;;;;;6260770;28;20053;-91
2024/02/26 07:13:50;;;;;;;4.97;1.40;;;5.80;87.40;;;;;;6267414;28;20412;-91
2024/02/26 07:16:52;;;;;;;7.20;1.63;;;5.80;86.70;;;;;;6269675;28;20053;-90
2024/02/26 07:19:53;;;;;;;6.75;1.40;;;5.80;87.80;;;;;;6245694;28;20092;-91
2024/02/26 07:22:56;;;;;;;6.55;1.30;;;5.80;87.80;;;;;;6269878;28;20145;-90
2024/02/26 07:25:58;;;;;;;4.82;1.40;;;6.20;88.90;;;;;;6269692;28;20050;-92
2024/02/26 07:29:00;;;;;;;7.22;1.40;;;5.80;90.50;;;;;;6277417;28;20057;-91
2024/02/26 07:32:02;;;;;;;8.05;1.70;;;5.80;88.40;;;;;;6278176;28;20068;-88
2024/02/26 07:35:04;;;;;;;11.02;1.48;;;5.80;86.80;;;;;;6229131;28;20057;-93
2024/02/26 07:38:07;;;;;;;7.05;1.60;;;5.80;85.40;;;;;;6248191;28;20068;-91
2024/02/26 07:41:20;;;;;;;7.57;1.42;;;5.80;90.40;;;;;;6243919;28;20054;-91
2024/02/26 07:44:21;;;;;;;6.00;1.70;;;5.80;91.10;;;;;;6261274;28;20073;-91
2024/02/26 07:47:23;;;;;;;6.45;1.60;;;5.80;90.70;;;;;;6267037;28;20045;-89
2024/02/26 07:50:25;;;;;;;9.10;1.70;;;5.80;90.20;;;;;;6243849;28;20109;-91
2024/02/26 07:53:26;;;;;;;5.38;1.30;;;5.80;87.30;;;;;;6271154;28;20053;-90
2024/02/26 07:56:28;;;;;;;6.20;1.50;;;5.80;83.60;;;;;;6261059;28;20061;-91
2024/02/26 07:59:30;;;;;;;7.40;1.50;;;5.90;82.10;;;;;;6269810;28;20131;-92
2024/02/26 08:02:31;;;;;;;5.55;1.77;;;5.90;84.10;;;;;;6248335;28;20485;-93
2024/02/26 08:05:33;;;;;;;5.43;1.40;;;6.00;80.50;;;;;;6270342;28;20057;-92
2024/02/26 08:08:35;;;;;;;4.05;1.35;;;6.00;76.10;;;;;;6263324;28;20053;-91
2024/02/26 08:11:36;;;;;;;7.40;1.60;;;6.10;72.70;;;;;;6288631;28;20052;-94
2024/02/26 08:14:38;;;;;;;6.57;1.52;;;6.20;70.50;;;;;;6257322;28;20057;-89
2024/02/26 08:17:40;;;;;;;7.07;1.60;;;6.10;70.40;;;;;;6274886;28;20049;-82
2024/02/26 08:20:42;;;;;;;6.32;1.17;;;6.50;60.10;;;;;;6224750;28;20053;-82
2024/02/26 08:23:44;;;;;;;6.57;1.55;;;6.30;53.20;;;;;;6246143;28;20132;-84
2024/02/26 08:26:46;;;;;;;4.80;1.20;;;6.30;57.50;;;;;;6254353;28;20110;-85
2024/02/26 08:29:47;;;;;;;6.05;1.38;;;6.40;60.80;;;;;;6236198;28;20057;-88
2024/02/26 08:32:49;;;;;;;5.20;1.50;;;6.40;52.80;;;;;;6251454;28;20057;-89
2024/02/26 08:35:53;;;;;;;6.68;1.48;;;6.50;62.40;;;;;;6246322;28;20060;-86
2024/02/26 08:38:55;;;;;;;6.40;1.40;;;6.50;62.00;;;;;;6220265;28;20176;-89
2024/02/26 08:41:56;;;;;;;9.32;1.40;;;6.50;63.70;;;;;;6223882;28;20061;-89
2024/02/26 08:48:54;;;;;;;7.55;1.65;;;6.60;63.50;;;;;;6224672;28;20050;-90
2024/02/26 08:51:56;;;;;;;6.95;1.65;;;6.70;67.00;;;;;;6257753;28;20522;-91
2024/02/26 08:54:58;;;;;;;5.45;1.63;;;6.60;66.60;;;;;;6240094;28;20054;-92
2024/02/26 09:01:45;;;;;;;6.63;1.85;;;6.80;70.90;;;;;;6230865;28;20569;-90
2024/02/26 09:04:47;;;;;;;6.50;1.58;;;6.80;61.00;;;;;;6230846;28;20160;-91
2024/02/26 09:07:51;;;;;;;7.57;1.50;;;7.20;60.90;;;;;;6247620;28;20061;-86
2024/02/26 09:10:53;;;;;;;8.75;2.20;;;6.80;65.90;;;;;;6244438;28;20417;-87
2024/02/26 09:13:55;;;;;;;5.32;1.30;;;6.90;70.90;;;;;;6219916;28;20054;-85
2024/02/26 09:16:56;;;;;;;5.55;1.45;;;6.90;65.10;;;;;;6226533;28;20050;-84
2024/02/26 09:19:58;;;;;;;8.77;1.60;;;6.90;61.40;;;;;;6231477;28;20481;-83
2024/02/26 09:23:00;;;;;;;4.82;1.25;;;6.90;48.60;;;;;;6253438;28;20061;-84
2024/02/26 09:26:02;;;;;;;4.30;1.15;;;7.00;59.00;;;;;;6225253;28;20050;-83
2024/02/26 09:29:08;;;;;;;5.03;1.38;;;6.90;50.30;;;;;;6220589;28;20049;-85
2024/02/26 09:32:09;;;;;;;3.67;1.13;;;7.00;53.00;;;;;;6215897;28;20059;-90
2024/02/26 09:35:13;;;;;;;6.85;1.30;;;7.10;50.00;;;;;;6225185;28;20322;-90
2024/02/26 09:38:15;;;;;;;4.85;1.27;;;7.10;37.80;;;;;;6237959;28;20057;-87
2024/02/26 09:41:17;;;;;;;7.10;1.30;;;7.20;34.90;;;;;;6254226;28;20049;-87
2024/02/26 09:44:19;;;;;;;5.03;1.08;;;7.20;42.80;;;;;;6213595;28;20053;-83
2024/02/26 09:47:21;;;;;;;4.13;1.10;;;7.40;37.00;;;;;;6228786;28;20535;-88
2024/02/26 09:50:23;;;;;;;7.70;1.08;;;7.50;32.10;;;;;;6225269;28;20056;-84
2024/02/26 09:53:25;;;;;;;7.22;1.17;;;7.60;27.10;;;;;;6222982;28;20045;-81
2024/02/26 09:56:26;;;;;;;5.07;1.30;;;7.50;27.60;;;;;;6214862;28;20053;-84
2024/02/26 09:59:28;;;;;;;3.47;1.30;;;7.60;21.70;;;;;;6228663;28;20053;-81
2024/02/26 10:02:30;;;;;;;6.25;1.35;;;7.70;16.50;;;;;;6216718;28;20061;-83
2024/02/26 10:05:31;;;;;;;6.57;1.20;;;7.90;19.40;;;;;;6240469;28;20056;-81
2024/02/26 10:08:33;;;;;;;7.07;1.35;;;7.90;12.80;;;;;;6235647;28;20420;-82
2024/02/26 10:11:34;;;;;;;3.88;0.90;;;7.90;2.50;;;;;;6242552;28;20080;-81
2024/02/26 10:14:38;;;;;;;5.32;1.30;;;8.00;6.60;;;;;;6226589;28;20141;-88
2024/02/26 10:17:39;;;;;;;4.47;1.17;;;8.00;3.70;;;;;;6251505;28;20053;-87
2024/02/26 10:20:41;;;;;;;6.47;1.35;;;8.00;1.00;;;;;;6244874;28;20100;-87
2024/02/26 10:23:43;;;;;;;5.65;1.00;;;7.90;1.00;;;;;;6249796;28;20063;-85
2024/02/26 10:26:47;;;;;;;4.00;0.90;;;7.80;1.00;;;;;;6245016;28;20053;-91
2024/02/26 10:29:51;;;;;;;5.80;1.10;;;7.60;1.00;;;;;;6224144;28;20053;-85
2024/02/26 10:32:53;;;;;;;4.32;1.05;;;7.50;1.00;;;;;;6235972;28;20061;-84
2024/02/26 10:35:55;;;;;;;4.00;0.82;;;7.50;1.00;;;;;;6242569;28;20528;-85
2024/02/26 10:38:56;;;;;;;5.03;0.90;;;7.40;6.00;;;;;;6236601;28;20461;-84
2024/02/26 10:41:58;;;;;;;5.72;1.10;;;7.40;7.10;;;;;;6233809;28;20057;-82
2024/02/26 10:45:02;;;;;;;5.47;1.27;;;7.30;12.30;;;;;;6207435;28;20837;-86
2024/02/26 10:48:03;;;;;;;6.05;1.05;;;7.30;13.70;;;;;;6256383;28;20061;-89
2024/02/26 10:51:05;;;;;;;9.07;1.08;;;7.20;3.90;;;;;;6254177;28;20057;-89
2024/02/26 10:54:09;;;;;;;5.13;0.90;;;7.20;14.30;;;;;;6236990;28;20205;-85
2024/02/26 10:57:11;;;;;;;4.28;1.10;;;7.10;4.60;;;;;;6245122;28;20095;-85
2024/02/26 11:00:13;;;;;;;4.78;1.27;;;7.10;3.00;;;;;;6219653;28;20367;-88
2024/02/26 11:03:17;;;;;;;4.43;1.13;;;7.20;5.80;;;;;;6238165;28;20068;-86
2024/02/26 11:06:20;;;;;;;4.80;1.00;;;7.20;4.60;;;;;;6211243;28;20064;-88
2024/02/26 11:09:22;;;;;;;4.53;1.13;;;7.20;5.90;;;;;;6250685;28;20064;-90
2024/02/26 11:12:24;;;;;;;5.18;1.20;;;7.30;1.00;;;;;;6234478;28;20057;-85
2024/02/26 11:15:26;;;;;;;5.47;1.08;;;7.50;1.00;;;;;;6240799;28;20057;-84
2024/02/26 11:18:27;;;;;;;4.75;0.90;;;7.60;1.00;;;;;;6247253;28;20049;-82
2024/02/26 11:21:40;;;;;;;6.18;1.00;;;7.60;1.00;;;;;;6250720;28;20061;-84
2024/02/26 11:24:42;;;;;;;4.57;1.10;;;7.70;1.00;;;;;;6236979;28;20080;-81
2024/02/26 11:27:44;;;;;;;4.07;0.95;;;7.70;1.00;;;;;;6241815;28;20049;-80
2024/02/26 11:30:46;;;;;;;5.68;1.08;;;7.70;1.00;;;;;;6233476;28;20076;-83
2024/02/26 11:33:47;;;;;;;3.08;0.98;;;7.90;1.00;;;;;;6269969;28;20126;-82
2024/02/26 11:36:49;;;;;;;6.55;1.20;;;7.90;1.00;;;;;;6260401;28;20148;-83
2024/02/26 11:39:51;;;;;;;4.60;1.00;;;8.20;1.00;;;;;;6270459;28;20052;-91
2024/02/26 11:42:53;;;;;;;4.05;1.20;;;8.20;1.00;;;;;;6249390;28;20049;-88
2024/02/26 11:45:59;;;;;;;4.43;1.02;;;8.10;1.00;;;;;;6208495;28;20494;-85
2024/02/26 11:49:01;;;;;;;5.40;1.30;;;8.10;1.00;;;;;;6229136;28;20509;-85
2024/02/26 11:52:03;;;;;;;6.18;1.27;;;8.10;1.00;;;;;;6260681;28;20076;-88
2024/02/26 11:55:05;;;;;;;5.70;1.17;;;8.10;1.00;;;;;;6255246;28;20053;-87
2024/02/26 11:58:06;;;;;;;4.72;1.05;;;8.10;1.00;;;;;;6265863;28;20053;-86
2024/02/26 12:01:10;;;;;;;5.38;1.15;;;8.20;1.00;;;;;;6219354;28;20137;-87
2024/02/26 12:04:12;;;;;;;5.65;1.00;;;8.20;1.00;;;;;;6215345;28;20042;-90
2024/02/26 12:07:14;;;;;;;4.00;0.90;;;8.10;1.00;;;;;;6240904;28;20489;-83
2024/02/26 12:10:16;;;;;;;4.60;0.90;;;8.50;1.00;;;;;;6236495;28;20056;-90
2024/02/26 12:13:21;;;;;;;4.30;0.95;;;8.30;1.00;;;;;;6222832;28;20071;-86
2024/02/26 12:16:23;;;;;;;5.57;0.85;;;8.30;1.00;;;;;;6242144;28;20485;-87
2024/02/26 12:19:25;;;;;;;6.18;1.02;;;8.50;1.00;;;;;;6244137;28;20416;-88
2024/02/26 12:22:27;;;;;;;5.78;0.90;;;8.70;1.00;;;;;;6271131;28;20065;-90
2024/02/26 12:25:28;;;;;;;5.40;0.95;;;8.70;1.00;;;;;;6281013;28;20057;-90
2024/02/26 12:28:30;;;;;;;4.38;0.90;;;8.80;1.00;;;;;;6257211;28;20411;-90
2024/02/26 12:31:32;;;;;;;2.50;0.73;;;8.90;1.00;;;;;;6238254;28;20050;-88
2024/02/26 12:34:33;;;;;;;5.45;1.02;;;9.00;1.00;;;;;;6261700;28;20053;-89
2024/02/26 12:37:37;;;;;;;5.70;1.10;;;8.70;1.00;;;;;;6256802;28;20057;-89
2024/02/26 12:40:43;;;;;;;2.90;0.80;;;8.50;1.00;;;;;;6227521;28;20046;-89
2024/02/26 12:43:44;;;;;;;4.95;1.13;;;8.40;1.00;;;;;;6232576;28;20060;-91
2024/02/26 12:46:49;;;;;;;5.35;1.10;;;8.50;1.00;;;;;;6281522;28;20053;-90
2024/02/26 12:49:51;;;;;;;5.00;1.10;;;8.50;1.00;;;;;;6253257;28;20053;-90
2024/02/26 12:52:53;;;;;;;5.80;1.20;;;8.40;1.00;;;;;;6266009;28;20049;-92
2024/02/26 12:55:55;;;;;;;5.40;1.10;;;8.20;1.00;;;;;;6237654;28;20057;-90
2024/02/26 12:58:57;;;;;;;5.50;1.00;;;8.20;1.00;;;;;;6254682;28;20060;-87
2024/02/26 13:01:59;;;;;;;5.03;0.90;;;8.10;1.00;;;;;;6280938;28;20056;-91
2024/02/26 13:05:01;;;;;;;5.45;0.98;;;8.40;1.00;;;;;;6251670;28;20059;-89
2024/02/26 13:08:04;;;;;;;4.60;1.10;;;8.30;1.00;;;;;;6276328;28;20049;-89
2024/02/26 13:11:09;;;;;;;4.13;1.23;;;8.40;1.00;;;;;;6226110;28;20097;-90
2024/02/26 13:14:11;;;;;;;5.03;0.93;;;8.50;1.00;;;;;;6229617;28;20099;-89
2024/02/26 13:17:13;;;;;;;4.85;1.17;;;8.70;1.00;;;;;;6264869;28;20523;-90
2024/02/26 13:20:15;;;;;;;3.88;1.27;;;9.00;1.00;;;;;;6260234;28;20059;-90
2024/02/26 13:23:17;;;;;;;4.93;0.95;;;9.20;1.00;;;;;;6276784;28;20117;-86
2024/02/26 13:26:18;;;;;;;4.18;0.90;;;9.20;1.00;;;;;;6241575;28;20493;-88
2024/02/26 13:29:20;;;;;;;2.63;0.77;;;9.30;1.00;;;;;;6249469;28;20075;-89
2024/02/26 13:32:22;;;;;;;3.38;0.57;;;9.30;1.00;;;;;;6261652;28;20438;-89
2024/02/26 13:35:23;;;;;;;2.47;0.77;;;9.40;1.00;;;;;;6256054;28;20053;-90
2024/02/26 13:38:25;;;;;;;4.93;1.02;;;9.30;1.00;;;;;;6275593;28;20056;-88
2024/02/26 13:41:27;;;;;;;3.20;0.85;;;9.10;1.00;;;;;;6253572;28;20092;-89
2024/02/26 13:44:29;;;;;;;2.55;0.80;;;9.30;1.00;;;;;;6264276;28;20049;-87
2024/02/26 13:47:30;;;;;;;4.90;1.00;;;9.70;1.00;;;;;;6249630;28;20068;-89
2024/02/26 13:50:34;;;;;;;2.67;0.77;;;10.00;1.00;;;;;;6258790;28;20049;-90
2024/02/26 13:53:36;;;;;;;3.33;0.80;;;10.30;1.00;;;;;;6239793;28;20254;-88
2024/02/26 13:56:38;;;;;;;2.80;0.70;;;10.20;1.00;;;;;;6256594;28;20424;-88
2024/02/26 13:59:42;;;;;;;4.63;0.98;;;9.90;1.00;;;;;;6233889;28;20455;-88
2024/02/26 14:02:43;;;;;;;2.28;0.85;;;9.60;1.00;;;;;;6241372;28;20069;-88
2024/02/26 14:05:45;;;;;;;4.10;1.08;;;9.50;1.00;;;;;;6234983;28;20045;-90
2024/02/26 14:08:49;;;;;;;5.43;0.90;;;9.50;1.00;;;;;;6227143;28;20050;-87
2024/02/26 14:11:50;;;;;;;4.40;0.75;;;9.60;1.00;;;;;;6251668;28;20056;-90
2024/02/26 14:14:55;;;;;;;4.28;0.80;;;9.90;1.00;;;;;;6250432;28;20053;-84
2024/02/26 14:17:57;;;;;;;7.07;1.33;;;9.70;1.00;;;;;;6223995;28;20049;-85
2024/02/26 14:20:59;;;;;;;4.85;1.05;;;9.50;1.00;;;;;;6224254;28;20519;-88
2024/02/26 14:24:02;;;;;;;6.10;1.20;;;9.40;1.00;;;;;;6217251;28;20443;-81
2024/02/26 14:27:04;;;;;;;4.75;1.33;;;9.50;1.00;;;;;;6251195;28;20056;-90
2024/02/26 14:30:05;;;;;;;4.65;1.10;;;9.40;1.00;;;;;;6212054;28;20421;-83
2024/02/26 14:33:09;;;;;;;5.10;1.10;;;10.00;1.00;;;;;;6277797;28;20048;-83
2024/02/26 14:36:15;;;;;;;6.25;1.25;;;9.80;1.00;;;;;;6231402;28;20643;-81
2024/02/26 14:39:17;;;;;;;3.97;1.00;;;9.60;1.00;;;;;;6260776;28;20068;-83
2024/02/26 14:42:19;;;;;;;3.42;1.00;;;9.40;1.00;;;;;;6247161;28;20060;-85
2024/02/26 14:45:21;;;;;;;7.70;1.38;;;9.30;1.00;;;;;;6215110;28;20057;-81
2024/02/26 14:48:22;;;;;;;5.88;1.10;;;9.20;1.00;;;;;;6258976;28;20103;-80
2024/02/26 14:51:24;;;;;;;4.93;1.00;;;9.30;1.00;;;;;;6246305;28;20053;-82
2024/02/26 14:54:26;;;;;;;4.45;1.15;;;9.20;1.00;;;;;;6239059;28;20045;-80
2024/02/26 14:57:28;;;;;;;6.78;1.45;;;9.20;1.00;;;;;;6258125;28;20048;-79
2024/02/26 15:00:33;;;;;;;6.28;1.13;;;9.20;1.00;;;;;;6240014;28;20056;-83
2024/02/26 15:03:35;;;;;;;5.65;1.35;;;9.30;1.00;;;;;;6220077;28;20457;-79
2024/02/26 15:06:38;;;;;;;4.18;1.17;;;9.30;1.00;;;;;;6223804;28;20414;-79
2024/02/26 15:09:40;;;;;;;6.43;1.20;;;9.40;1.00;;;;;;6221871;28;20445;-84
2024/02/26 15:12:41;;;;;;;5.18;1.10;;;9.40;1.00;;;;;;6249673;28;20397;-85
2024/02/26 15:15:44;;;;;;;5.50;1.10;;;9.40;1.00;;;;;;6228363;28;20099;-91
2024/02/26 15:18:46;;;;;;;6.03;1.20;;;9.40;1.00;;;;;;6241870;28;20494;-81
2024/02/26 15:21:48;;;;;;;5.97;1.05;;;9.50;1.00;;;;;;6238716;28;20408;-80
2024/02/26 15:24:50;;;;;;;4.53;1.10;;;9.50;1.00;;;;;;6249134;28;20055;-93
2024/02/26 15:27:52;;;;;;;6.55;0.90;;;9.30;1.00;;;;;;6244240;28;20125;-88
2024/02/26 15:30:53;;;;;;;5.03;1.40;;;9.30;1.00;;;;;;6247306;28;20065;-89
2024/02/26 15:33:55;;;;;;;6.43;1.20;;;9.20;1.00;;;;;;6246990;28;20083;-92
2024/02/26 15:36:58;;;;;;;5.15;1.20;;;9.20;1.00;;;;;;6276335;28;20140;-90
2024/02/26 15:40:03;;;;;;;7.07;1.02;;;9.20;1.00;;;;;;6293931;28;20049;-91
2024/02/26 15:43:05;;;;;;;4.45;1.30;;;9.00;1.00;;;;;;6236694;28;20079;-89
2024/02/26 15:46:07;;;;;;;10.48;1.00;;;8.90;1.00;;;;;;6278257;28;20056;-88
2024/02/26 15:49:09;;;;;;;8.55;1.30;;;9.00;1.00;;;;;;6263366;28;20052;-91
2024/02/26 15:52:16;;;;;;;6.78;1.02;;;8.90;1.00;;;;;;6262796;28;20140;-90
2024/02/26 15:55:18;;;;;;;5.95;1.10;;;9.00;1.00;;;;;;6265272;28;20064;-91
2024/02/26 15:58:23;;;;;;;5.85;1.02;;;8.80;1.00;;;;;;6231588;28;20045;-92
2024/02/26 16:01:25;;;;;;;4.20;0.98;;;8.70;1.00;;;;;;6242999;28;20061;-90
2024/02/26 16:04:30;;;;;;;4.97;0.90;;;8.70;1.00;;;;;;6252822;28;20054;-92
2024/02/26 16:07:31;;;;;;;6.03;1.13;;;9.10;1.00;;;;;;6247309;28;20045;-92
2024/02/26 16:10:33;;;;;;;4.70;1.20;;;8.60;1.00;;;;;;6246581;28;20136;-84
2024/02/26 16:13:35;;;;;;;6.05;1.33;;;8.90;1.00;;;;;;6251864;28;20056;-89